sensor_id;sensor_type;location;lat;lon;timestamp;P1;durP1;ratioP1;P2;durP2;ratioP2
66669;SDS011;53568;52.164;4.472;2023-04-24T00:00:02;3.58;;;2.48;;
66669;SDS011;53568;52.164;4.472;2023-04-24T00:02:34;3.48;;;2.43;;
66669;SDS011;53568;52.164;4.472;2023-04-24T00:05:03;3.47;;;2.42;;
66669;SDS011;53568;52.164;4.472;2023-04-24T00:07:29;2.63;;;1.94;;
66669;SDS011;53568;52.164;4.472;2023-04-24T00:09:55;2.31;;;1.77;;
66669;SDS011;53568;52.164;4.472;2023-04-24T00:12:21;2.41;;;1.91;;
66669;SDS011;53568;52.164;4.472;2023-04-24T00:14:46;2.07;;;1.67;;
66669;SDS011;53568;52.164;4.472;2023-04-24T00:17:12;2.33;;;1.92;;
66669;SDS011;53568;52.164;4.472;2023-04-24T00:19:38;2.30;;;1.93;;
66669;SDS011;53568;52.164;4.472;2023-04-24T00:22:03;1.89;;;1.62;;
66669;SDS011;53568;52.164;4.472;2023-04-24T00:24:30;1.98;;;1.73;;
66669;SDS011;53568;52.164;4.472;2023-04-24T00:26:56;1.83;;;1.61;;
66669;SDS011;53568;52.164;4.472;2023-04-24T00:29:22;1.89;;;1.66;;
66669;SDS011;53568;52.164;4.472;2023-04-24T00:31:47;1.96;;;1.70;;
66669;SDS011;53568;52.164;4.472;2023-04-24T00:34:13;1.93;;;1.68;;
66669;SDS011;53568;52.164;4.472;2023-04-24T00:36:38;2.04;;;1.81;;
66669;SDS011;53568;52.164;4.472;2023-04-24T00:39:04;2.03;;;1.79;;
66669;SDS011;53568;52.164;4.472;2023-04-24T00:41:30;2.30;;;1.98;;
66669;SDS011;53568;52.164;4.472;2023-04-24T00:43:55;2.16;;;1.83;;
66669;SDS011;53568;52.164;4.472;2023-04-24T00:46:21;2.20;;;1.84;;
66669;SDS011;53568;52.164;4.472;2023-04-24T00:48:47;2.36;;;1.92;;
66669;SDS011;53568;52.164;4.472;2023-04-24T00:51:12;2.62;;;2.11;;
66669;SDS011;53568;52.164;4.472;2023-04-24T00:53:38;2.62;;;2.05;;
66669;SDS011;53568;52.164;4.472;2023-04-24T00:56:03;2.60;;;2.01;;
66669;SDS011;53568;52.164;4.472;2023-04-24T00:58:30;2.44;;;1.91;;
66669;SDS011;53568;52.164;4.472;2023-04-24T01:00:57;2.15;;;1.71;;
66669;SDS011;53568;52.164;4.472;2023-04-24T01:03:28;1.83;;;1.45;;
66669;SDS011;53568;52.164;4.472;2023-04-24T01:05:56;2.09;;;1.64;;
66669;SDS011;53568;52.164;4.472;2023-04-24T01:08:23;1.77;;;1.39;;
66669;SDS011;53568;52.164;4.472;2023-04-24T01:10:53;1.86;;;1.46;;
66669;SDS011;53568;52.164;4.472;2023-04-24T01:13:20;1.88;;;1.51;;
66669;SDS011;53568;52.164;4.472;2023-04-24T01:15:46;1.86;;;1.49;;
66669;SDS011;53568;52.164;4.472;2023-04-24T01:18:13;2.04;;;1.64;;
66669;SDS011;53568;52.164;4.472;2023-04-24T01:20:42;2.01;;;1.66;;
66669;SDS011;53568;52.164;4.472;2023-04-24T01:23:10;2.18;;;1.82;;
66669;SDS011;53568;52.164;4.472;2023-04-24T01:25:36;1.78;;;1.50;;
66669;SDS011;53568;52.164;4.472;2023-04-24T01:28:02;1.83;;;1.58;;
66669;SDS011;53568;52.164;4.472;2023-04-24T01:30:28;1.95;;;1.72;;
66669;SDS011;53568;52.164;4.472;2023-04-24T01:32:55;1.91;;;1.68;;
66669;SDS011;53568;52.164;4.472;2023-04-24T01:35:21;1.77;;;1.58;;
66669;SDS011;53568;52.164;4.472;2023-04-24T01:37:47;1.53;;;1.38;;
66669;SDS011;53568;52.164;4.472;2023-04-24T01:40:12;1.59;;;1.43;;
66669;SDS011;53568;52.164;4.472;2023-04-24T01:42:40;1.65;;;1.51;;
66669;SDS011;53568;52.164;4.472;2023-04-24T01:45:06;1.62;;;1.51;;
66669;SDS011;53568;52.164;4.472;2023-04-24T01:47:37;1.52;;;1.47;;
66669;SDS011;53568;52.164;4.472;2023-04-24T01:50:03;1.52;;;1.52;;
66669;SDS011;53568;52.164;4.472;2023-04-24T01:52:30;1.52;;;1.52;;
66669;SDS011;53568;52.164;4.472;2023-04-24T01:55:01;1.47;;;1.47;;
66669;SDS011;53568;52.164;4.472;2023-04-24T01:57:29;1.41;;;1.41;;
66669;SDS011;53568;52.164;4.472;2023-04-24T01:59:55;1.39;;;1.39;;
66669;SDS011;53568;52.164;4.472;2023-04-24T02:02:22;1.46;;;1.46;;
66669;SDS011;53568;52.164;4.472;2023-04-24T02:04:51;1.71;;;1.71;;
66669;SDS011;53568;52.164;4.472;2023-04-24T02:07:17;1.62;;;1.61;;
66669;SDS011;53568;52.164;4.472;2023-04-24T02:09:42;1.58;;;1.58;;
66669;SDS011;53568;52.164;4.472;2023-04-24T02:12:08;1.47;;;1.47;;
66669;SDS011;53568;52.164;4.472;2023-04-24T02:14:33;1.67;;;1.67;;
66669;SDS011;53568;52.164;4.472;2023-04-24T02:16:59;1.60;;;1.60;;
66669;SDS011;53568;52.164;4.472;2023-04-24T02:19:25;1.69;;;1.69;;
66669;SDS011;53568;52.164;4.472;2023-04-24T02:21:51;1.78;;;1.75;;
66669;SDS011;53568;52.164;4.472;2023-04-24T02:24:18;1.50;;;1.49;;
66669;SDS011;53568;52.164;4.472;2023-04-24T02:26:43;1.27;;;1.27;;
66669;SDS011;53568;52.164;4.472;2023-04-24T02:29:09;1.54;;;1.54;;
66669;SDS011;53568;52.164;4.472;2023-04-24T02:31:34;1.32;;;1.32;;
66669;SDS011;53568;52.164;4.472;2023-04-24T02:34:00;1.31;;;1.31;;
66669;SDS011;53568;52.164;4.472;2023-04-24T02:36:26;1.48;;;1.48;;
66669;SDS011;53568;52.164;4.472;2023-04-24T02:38:51;1.55;;;1.55;;
66669;SDS011;53568;52.164;4.472;2023-04-24T02:41:17;1.68;;;1.68;;
66669;SDS011;53568;52.164;4.472;2023-04-24T02:43:42;1.69;;;1.69;;
66669;SDS011;53568;52.164;4.472;2023-04-24T02:46:08;1.85;;;1.81;;
66669;SDS011;53568;52.164;4.472;2023-04-24T02:48:33;1.98;;;1.80;;
66669;SDS011;53568;52.164;4.472;2023-04-24T02:50:59;2.29;;;2.03;;
66669;SDS011;53568;52.164;4.472;2023-04-24T02:53:24;2.51;;;2.22;;
66669;SDS011;53568;52.164;4.472;2023-04-24T02:55:50;2.55;;;2.25;;
66669;SDS011;53568;52.164;4.472;2023-04-24T02:58:16;2.63;;;2.36;;
66669;SDS011;53568;52.164;4.472;2023-04-24T03:00:42;2.23;;;2.06;;
66669;SDS011;53568;52.164;4.472;2023-04-24T03:03:08;2.23;;;2.13;;
66669;SDS011;53568;52.164;4.472;2023-04-24T03:05:34;2.06;;;2.06;;
66669;SDS011;53568;52.164;4.472;2023-04-24T03:08:00;2.55;;;2.55;;
66669;SDS011;53568;52.164;4.472;2023-04-24T03:10:25;2.34;;;2.34;;
66669;SDS011;53568;52.164;4.472;2023-04-24T03:12:51;2.27;;;2.27;;
66669;SDS011;53568;52.164;4.472;2023-04-24T03:15:16;2.41;;;2.41;;
66669;SDS011;53568;52.164;4.472;2023-04-24T03:17:42;2.67;;;2.67;;
66669;SDS011;53568;52.164;4.472;2023-04-24T03:20:07;2.46;;;2.46;;
66669;SDS011;53568;52.164;4.472;2023-04-24T03:22:34;1.60;;;1.60;;
66669;SDS011;53568;52.164;4.472;2023-04-24T03:25:00;1.07;;;1.03;;
66669;SDS011;53568;52.164;4.472;2023-04-24T03:27:26;0.96;;;0.90;;
66669;SDS011;53568;52.164;4.472;2023-04-24T03:29:51;0.92;;;0.86;;
66669;SDS011;53568;52.164;4.472;2023-04-24T03:32:20;0.92;;;0.86;;
66669;SDS011;53568;52.164;4.472;2023-04-24T03:34:49;1.00;;;0.93;;
66669;SDS011;53568;52.164;4.472;2023-04-24T03:37:15;0.80;;;0.74;;
66669;SDS011;53568;52.164;4.472;2023-04-24T03:39:41;0.60;;;0.54;;
66669;SDS011;53568;52.164;4.472;2023-04-24T03:42:07;0.60;;;0.54;;
66669;SDS011;53568;52.164;4.472;2023-04-24T03:44:33;0.81;;;0.73;;
66669;SDS011;53568;52.164;4.472;2023-04-24T03:46:59;0.81;;;0.73;;
66669;SDS011;53568;52.164;4.472;2023-04-24T03:49:25;0.66;;;0.60;;
66669;SDS011;53568;52.164;4.472;2023-04-24T03:51:51;0.74;;;0.67;;
66669;SDS011;53568;52.164;4.472;2023-04-24T03:54:17;0.69;;;0.61;;
66669;SDS011;53568;52.164;4.472;2023-04-24T03:56:43;0.69;;;0.62;;
66669;SDS011;53568;52.164;4.472;2023-04-24T03:59:09;0.71;;;0.64;;
66669;SDS011;53568;52.164;4.472;2023-04-24T04:01:34;0.73;;;0.66;;
66669;SDS011;53568;52.164;4.472;2023-04-24T04:04:05;0.65;;;0.58;;
66669;SDS011;53568;52.164;4.472;2023-04-24T04:06:31;0.87;;;0.76;;
66669;SDS011;53568;52.164;4.472;2023-04-24T04:08:57;1.12;;;0.99;;
66669;SDS011;53568;52.164;4.472;2023-04-24T04:11:23;1.42;;;1.24;;
66669;SDS011;53568;52.164;4.472;2023-04-24T04:13:49;1.35;;;1.18;;
66669;SDS011;53568;52.164;4.472;2023-04-24T04:16:15;1.14;;;1.00;;
66669;SDS011;53568;52.164;4.472;2023-04-24T04:18:43;1.14;;;1.02;;
66669;SDS011;53568;52.164;4.472;2023-04-24T04:21:10;1.31;;;1.18;;
66669;SDS011;53568;52.164;4.472;2023-04-24T04:23:35;1.73;;;1.56;;
66669;SDS011;53568;52.164;4.472;2023-04-24T04:26:01;2.07;;;1.88;;
66669;SDS011;53568;52.164;4.472;2023-04-24T04:28:28;2.65;;;2.44;;
66669;SDS011;53568;52.164;4.472;2023-04-24T04:30:56;3.83;;;3.56;;
66669;SDS011;53568;52.164;4.472;2023-04-24T04:33:22;4.19;;;3.99;;
66669;SDS011;53568;52.164;4.472;2023-04-24T04:35:49;5.20;;;5.16;;
66669;SDS011;53568;52.164;4.472;2023-04-24T04:38:17;6.45;;;6.45;;
66669;SDS011;53568;52.164;4.472;2023-04-24T04:40:43;7.15;;;7.15;;
66669;SDS011;53568;52.164;4.472;2023-04-24T04:43:09;7.48;;;7.47;;
66669;SDS011;53568;52.164;4.472;2023-04-24T04:45:36;6.97;;;6.94;;
66669;SDS011;53568;52.164;4.472;2023-04-24T04:48:04;6.45;;;6.45;;
66669;SDS011;53568;52.164;4.472;2023-04-24T04:50:31;6.46;;;6.46;;
66669;SDS011;53568;52.164;4.472;2023-04-24T04:52:56;6.39;;;6.39;;
66669;SDS011;53568;52.164;4.472;2023-04-24T04:55:22;6.50;;;6.50;;
66669;SDS011;53568;52.164;4.472;2023-04-24T04:57:47;7.08;;;7.08;;
66669;SDS011;53568;52.164;4.472;2023-04-24T05:00:13;8.78;;;8.78;;
66669;SDS011;53568;52.164;4.472;2023-04-24T05:02:39;10.24;;;10.24;;
66669;SDS011;53568;52.164;4.472;2023-04-24T05:05:05;12.45;;;12.44;;
66669;SDS011;53568;52.164;4.472;2023-04-24T05:07:31;13.79;;;13.74;;
66669;SDS011;53568;52.164;4.472;2023-04-24T05:09:57;16.54;;;16.50;;
66669;SDS011;53568;52.164;4.472;2023-04-24T05:12:22;17.81;;;17.79;;
66669;SDS011;53568;52.164;4.472;2023-04-24T05:14:48;18.23;;;18.19;;
66669;SDS011;53568;52.164;4.472;2023-04-24T05:17:13;18.71;;;18.61;;
66669;SDS011;53568;52.164;4.472;2023-04-24T05:19:39;18.80;;;18.66;;
66669;SDS011;53568;52.164;4.472;2023-04-24T05:22:04;17.39;;;17.33;;
66669;SDS011;53568;52.164;4.472;2023-04-24T05:24:35;16.01;;;16.00;;
66669;SDS011;53568;52.164;4.472;2023-04-24T05:27:01;14.65;;;14.65;;
66669;SDS011;53568;52.164;4.472;2023-04-24T05:29:27;14.74;;;14.74;;
66669;SDS011;53568;52.164;4.472;2023-04-24T05:31:55;13.55;;;13.54;;
66669;SDS011;53568;52.164;4.472;2023-04-24T05:34:21;13.22;;;13.22;;
66669;SDS011;53568;52.164;4.472;2023-04-24T05:36:47;13.18;;;13.18;;
66669;SDS011;53568;52.164;4.472;2023-04-24T05:39:13;12.70;;;12.70;;
66669;SDS011;53568;52.164;4.472;2023-04-24T05:41:39;12.76;;;12.76;;
66669;SDS011;53568;52.164;4.472;2023-04-24T05:44:04;12.74;;;12.72;;
66669;SDS011;53568;52.164;4.472;2023-04-24T05:46:30;13.39;;;13.31;;
66669;SDS011;53568;52.164;4.472;2023-04-24T05:48:58;12.95;;;12.95;;
66669;SDS011;53568;52.164;4.472;2023-04-24T05:51:24;11.93;;;11.92;;
66669;SDS011;53568;52.164;4.472;2023-04-24T05:53:49;12.37;;;12.37;;
66669;SDS011;53568;52.164;4.472;2023-04-24T05:56:15;11.70;;;11.69;;
66669;SDS011;53568;52.164;4.472;2023-04-24T05:58:41;11.63;;;11.62;;
66669;SDS011;53568;52.164;4.472;2023-04-24T06:01:07;11.04;;;11.00;;
66669;SDS011;53568;52.164;4.472;2023-04-24T06:03:32;10.43;;;10.36;;
66669;SDS011;53568;52.164;4.472;2023-04-24T06:05:58;9.03;;;8.87;;
66669;SDS011;53568;52.164;4.472;2023-04-24T06:08:24;9.32;;;8.92;;
66669;SDS011;53568;52.164;4.472;2023-04-24T06:10:49;10.19;;;9.59;;
66669;SDS011;53568;52.164;4.472;2023-04-24T06:13:15;9.76;;;9.10;;
66669;SDS011;53568;52.164;4.472;2023-04-24T06:15:41;9.82;;;9.15;;
66669;SDS011;53568;52.164;4.472;2023-04-24T06:18:07;9.05;;;8.45;;
66669;SDS011;53568;52.164;4.472;2023-04-24T06:20:32;9.07;;;8.41;;
66669;SDS011;53568;52.164;4.472;2023-04-24T06:22:58;9.49;;;8.58;;
66669;SDS011;53568;52.164;4.472;2023-04-24T06:25:27;9.52;;;8.59;;
66669;SDS011;53568;52.164;4.472;2023-04-24T06:27:53;8.36;;;7.60;;
66669;SDS011;53568;52.164;4.472;2023-04-24T06:30:19;8.88;;;7.97;;
66669;SDS011;53568;52.164;4.472;2023-04-24T06:32:45;8.68;;;8.02;;
66669;SDS011;53568;52.164;4.472;2023-04-24T06:35:10;7.96;;;7.47;;
66669;SDS011;53568;52.164;4.472;2023-04-24T06:37:38;9.15;;;8.31;;
66669;SDS011;53568;52.164;4.472;2023-04-24T06:40:05;8.95;;;8.03;;
66669;SDS011;53568;52.164;4.472;2023-04-24T06:42:31;9.18;;;8.17;;
66669;SDS011;53568;52.164;4.472;2023-04-24T06:44:56;8.64;;;7.74;;
66669;SDS011;53568;52.164;4.472;2023-04-24T06:47:22;7.73;;;6.89;;
66669;SDS011;53568;52.164;4.472;2023-04-24T06:49:48;7.75;;;7.04;;
66669;SDS011;53568;52.164;4.472;2023-04-24T06:52:16;7.99;;;7.15;;
66669;SDS011;53568;52.164;4.472;2023-04-24T06:54:41;8.32;;;6.95;;
66669;SDS011;53568;52.164;4.472;2023-04-24T06:57:08;8.90;;;7.14;;
66669;SDS011;53568;52.164;4.472;2023-04-24T06:59:33;9.10;;;7.23;;
66669;SDS011;53568;52.164;4.472;2023-04-24T07:01:59;9.28;;;7.12;;
66669;SDS011;53568;52.164;4.472;2023-04-24T07:04:25;9.71;;;7.35;;
66669;SDS011;53568;52.164;4.472;2023-04-24T07:06:51;9.36;;;7.15;;
66669;SDS011;53568;52.164;4.472;2023-04-24T07:09:19;9.19;;;7.01;;
66669;SDS011;53568;52.164;4.472;2023-04-24T07:11:45;9.41;;;7.05;;
66669;SDS011;53568;52.164;4.472;2023-04-24T07:14:11;8.99;;;6.59;;
66669;SDS011;53568;52.164;4.472;2023-04-24T07:16:37;7.49;;;5.72;;
66669;SDS011;53568;52.164;4.472;2023-04-24T07:19:02;6.91;;;5.38;;
66669;SDS011;53568;52.164;4.472;2023-04-24T07:21:28;7.36;;;5.69;;
66669;SDS011;53568;52.164;4.472;2023-04-24T07:23:53;7.38;;;5.66;;
66669;SDS011;53568;52.164;4.472;2023-04-24T07:26:19;7.81;;;5.86;;
66669;SDS011;53568;52.164;4.472;2023-04-24T07:28:46;8.28;;;6.14;;
66669;SDS011;53568;52.164;4.472;2023-04-24T07:31:11;7.99;;;6.00;;
66669;SDS011;53568;52.164;4.472;2023-04-24T07:33:37;7.71;;;5.83;;
66669;SDS011;53568;52.164;4.472;2023-04-24T07:36:03;6.50;;;4.99;;
66669;SDS011;53568;52.164;4.472;2023-04-24T07:38:29;7.31;;;5.62;;
66669;SDS011;53568;52.164;4.472;2023-04-24T07:40:55;6.36;;;5.06;;
66669;SDS011;53568;52.164;4.472;2023-04-24T07:43:21;6.91;;;5.40;;
66669;SDS011;53568;52.164;4.472;2023-04-24T07:45:48;6.65;;;5.23;;
66669;SDS011;53568;52.164;4.472;2023-04-24T07:48:15;6.49;;;5.03;;
66669;SDS011;53568;52.164;4.472;2023-04-24T07:50:41;7.14;;;5.41;;
66669;SDS011;53568;52.164;4.472;2023-04-24T07:53:07;7.24;;;5.43;;
66669;SDS011;53568;52.164;4.472;2023-04-24T07:55:33;7.43;;;5.61;;
66669;SDS011;53568;52.164;4.472;2023-04-24T07:57:59;7.89;;;5.79;;
66669;SDS011;53568;52.164;4.472;2023-04-24T08:00:24;7.63;;;5.59;;
66669;SDS011;53568;52.164;4.472;2023-04-24T08:02:50;6.92;;;5.26;;
66669;SDS011;53568;52.164;4.472;2023-04-24T08:05:15;5.76;;;4.60;;
66669;SDS011;53568;52.164;4.472;2023-04-24T08:07:41;5.55;;;4.52;;
66669;SDS011;53568;52.164;4.472;2023-04-24T08:10:11;5.26;;;4.32;;
66669;SDS011;53568;52.164;4.472;2023-04-24T08:12:36;5.17;;;4.36;;
66669;SDS011;53568;52.164;4.472;2023-04-24T08:15:02;5.35;;;4.39;;
66669;SDS011;53568;52.164;4.472;2023-04-24T08:17:28;6.23;;;4.97;;
66669;SDS011;53568;52.164;4.472;2023-04-24T08:19:54;5.84;;;4.83;;
66669;SDS011;53568;52.164;4.472;2023-04-24T08:22:26;5.64;;;4.68;;
66669;SDS011;53568;52.164;4.472;2023-04-24T08:24:53;4.62;;;3.91;;
66669;SDS011;53568;52.164;4.472;2023-04-24T08:27:19;4.59;;;3.91;;
66669;SDS011;53568;52.164;4.472;2023-04-24T08:29:45;4.80;;;4.04;;
66669;SDS011;53568;52.164;4.472;2023-04-24T08:32:10;4.76;;;4.00;;
66669;SDS011;53568;52.164;4.472;2023-04-24T08:34:36;4.17;;;3.71;;
66669;SDS011;53568;52.164;4.472;2023-04-24T08:37:02;3.78;;;3.42;;
66669;SDS011;53568;52.164;4.472;2023-04-24T08:39:28;3.79;;;3.41;;
66669;SDS011;53568;52.164;4.472;2023-04-24T08:41:54;3.34;;;3.02;;
66669;SDS011;53568;52.164;4.472;2023-04-24T08:44:21;3.52;;;3.12;;
66669;SDS011;53568;52.164;4.472;2023-04-24T08:46:47;3.46;;;2.98;;
66669;SDS011;53568;52.164;4.472;2023-04-24T08:49:14;3.67;;;3.02;;
66669;SDS011;53568;52.164;4.472;2023-04-24T08:51:44;3.34;;;2.75;;
66669;SDS011;53568;52.164;4.472;2023-04-24T08:54:12;3.61;;;3.00;;
66669;SDS011;53568;52.164;4.472;2023-04-24T08:56:39;3.49;;;2.87;;
66669;SDS011;53568;52.164;4.472;2023-04-24T08:59:09;3.91;;;3.15;;
66669;SDS011;53568;52.164;4.472;2023-04-24T09:01:35;4.01;;;3.18;;
66669;SDS011;53568;52.164;4.472;2023-04-24T09:04:04;3.93;;;3.04;;
66669;SDS011;53568;52.164;4.472;2023-04-24T09:06:34;3.80;;;2.89;;
66669;SDS011;53568;52.164;4.472;2023-04-24T09:09:01;3.48;;;2.69;;
66669;SDS011;53568;52.164;4.472;2023-04-24T09:11:29;3.03;;;2.31;;
66669;SDS011;53568;52.164;4.472;2023-04-24T09:13:56;2.86;;;2.19;;
66669;SDS011;53568;52.164;4.472;2023-04-24T09:16:23;2.27;;;1.78;;
66669;SDS011;53568;52.164;4.472;2023-04-24T09:18:51;2.26;;;1.74;;
66669;SDS011;53568;52.164;4.472;2023-04-24T09:21:19;2.26;;;1.72;;
66669;SDS011;53568;52.164;4.472;2023-04-24T09:23:46;2.41;;;1.85;;
66669;SDS011;53568;52.164;4.472;2023-04-24T09:26:12;2.53;;;1.92;;
66669;SDS011;53568;52.164;4.472;2023-04-24T09:28:39;2.43;;;1.82;;
66669;SDS011;53568;52.164;4.472;2023-04-24T09:31:15;2.05;;;1.55;;
66669;SDS011;53568;52.164;4.472;2023-04-24T09:34:04;2.10;;;1.60;;
66669;SDS011;53568;52.164;4.472;2023-04-24T09:36:40;2.32;;;1.77;;
66669;SDS011;53568;52.164;4.472;2023-04-24T09:39:08;2.74;;;2.06;;
66669;SDS011;53568;52.164;4.472;2023-04-24T09:44:17;3.45;;;2.43;;
66669;SDS011;53568;52.164;4.472;2023-04-24T09:46:48;4.16;;;2.88;;
66669;SDS011;53568;52.164;4.472;2023-04-24T09:49:28;3.58;;;2.47;;
66669;SDS011;53568;52.164;4.472;2023-04-24T09:52:08;3.30;;;2.28;;
66669;SDS011;53568;52.164;4.472;2023-04-24T09:54:35;3.67;;;2.52;;
66669;SDS011;53568;52.164;4.472;2023-04-24T09:57:02;4.01;;;2.78;;
66669;SDS011;53568;52.164;4.472;2023-04-24T09:59:28;4.30;;;2.99;;
66669;SDS011;53568;52.164;4.472;2023-04-24T10:01:54;3.68;;;2.56;;
66669;SDS011;53568;52.164;4.472;2023-04-24T10:04:21;3.77;;;2.65;;
66669;SDS011;53568;52.164;4.472;2023-04-24T10:06:50;2.70;;;1.90;;
66669;SDS011;53568;52.164;4.472;2023-04-24T10:09:21;2.64;;;1.87;;
66669;SDS011;53568;52.164;4.472;2023-04-24T10:11:52;2.32;;;1.66;;
66669;SDS011;53568;52.164;4.472;2023-04-24T10:14:19;2.11;;;1.54;;
66669;SDS011;53568;52.164;4.472;2023-04-24T10:16:47;2.53;;;1.85;;
66669;SDS011;53568;52.164;4.472;2023-04-24T10:19:15;2.43;;;1.79;;
66669;SDS011;53568;52.164;4.472;2023-04-24T10:21:44;2.71;;;1.96;;
66669;SDS011;53568;52.164;4.472;2023-04-24T10:24:16;2.80;;;2.00;;
66669;SDS011;53568;52.164;4.472;2023-04-24T10:26:44;3.20;;;2.27;;
66669;SDS011;53568;52.164;4.472;2023-04-24T10:29:11;3.31;;;2.33;;
66669;SDS011;53568;52.164;4.472;2023-04-24T10:31:38;3.77;;;2.60;;
66669;SDS011;53568;52.164;4.472;2023-04-24T10:34:08;4.31;;;2.89;;
66669;SDS011;53568;52.164;4.472;2023-04-24T10:36:35;4.67;;;3.13;;
66669;SDS011;53568;52.164;4.472;2023-04-24T10:39:06;4.29;;;2.86;;
66669;SDS011;53568;52.164;4.472;2023-04-24T10:41:36;4.37;;;2.86;;
66669;SDS011;53568;52.164;4.472;2023-04-24T10:46:36;4.94;;;3.16;;
66669;SDS011;53568;52.164;4.472;2023-04-24T10:49:05;5.76;;;3.64;;
66669;SDS011;53568;52.164;4.472;2023-04-24T10:51:52;5.94;;;3.72;;
66669;SDS011;53568;52.164;4.472;2023-04-24T10:54:25;6.47;;;4.11;;
66669;SDS011;53568;52.164;4.472;2023-04-24T10:56:53;5.25;;;3.34;;
66669;SDS011;53568;52.164;4.472;2023-04-24T10:59:51;4.22;;;2.72;;
66669;SDS011;53568;52.164;4.472;2023-04-24T11:02:38;3.61;;;2.40;;
66669;SDS011;53568;52.164;4.472;2023-04-24T11:05:05;3.32;;;2.21;;
66669;SDS011;53568;52.164;4.472;2023-04-24T11:10:39;4.48;;;3.08;;
66669;SDS011;53568;52.164;4.472;2023-04-24T11:13:26;4.34;;;2.98;;
66669;SDS011;53568;52.164;4.472;2023-04-24T11:16:20;4.60;;;3.13;;
66669;SDS011;53568;52.164;4.472;2023-04-24T11:19:00;3.98;;;2.68;;
66669;SDS011;53568;52.164;4.472;2023-04-24T11:21:32;4.47;;;3.06;;
66669;SDS011;53568;52.164;4.472;2023-04-24T11:26:51;5.71;;;3.83;;
66669;SDS011;53568;52.164;4.472;2023-04-24T11:29:19;5.31;;;3.63;;
66669;SDS011;53568;52.164;4.472;2023-04-24T11:31:46;4.89;;;3.38;;
66669;SDS011;53568;52.164;4.472;2023-04-24T11:34:17;5.18;;;3.50;;
66669;SDS011;53568;52.164;4.472;2023-04-24T11:36:44;6.07;;;4.09;;
66669;SDS011;53568;52.164;4.472;2023-04-24T11:39:11;6.38;;;4.27;;
66669;SDS011;53568;52.164;4.472;2023-04-24T11:41:37;5.97;;;4.01;;
66669;SDS011;53568;52.164;4.472;2023-04-24T11:44:03;7.89;;;5.21;;
66669;SDS011;53568;52.164;4.472;2023-04-24T11:46:32;7.03;;;4.67;;
66669;SDS011;53568;52.164;4.472;2023-04-24T11:48:58;7.73;;;5.20;;
66669;SDS011;53568;52.164;4.472;2023-04-24T11:51:25;6.95;;;4.79;;
66669;SDS011;53568;52.164;4.472;2023-04-24T11:53:55;7.20;;;4.83;;
66669;SDS011;53568;52.164;4.472;2023-04-24T11:56:24;7.16;;;4.91;;
66669;SDS011;53568;52.164;4.472;2023-04-24T11:58:53;7.54;;;5.17;;
66669;SDS011;53568;52.164;4.472;2023-04-24T12:01:20;7.45;;;5.10;;
66669;SDS011;53568;52.164;4.472;2023-04-24T12:03:50;7.62;;;5.23;;
66669;SDS011;53568;52.164;4.472;2023-04-24T12:06:24;8.70;;;5.96;;
66669;SDS011;53568;52.164;4.472;2023-04-24T12:08:49;7.38;;;5.29;;
66669;SDS011;53568;52.164;4.472;2023-04-24T12:11:20;8.04;;;5.77;;
66669;SDS011;53568;52.164;4.472;2023-04-24T12:13:45;8.32;;;5.93;;
66669;SDS011;53568;52.164;4.472;2023-04-24T12:16:11;7.85;;;5.63;;
66669;SDS011;53568;52.164;4.472;2023-04-24T12:18:44;7.80;;;5.60;;
66669;SDS011;53568;52.164;4.472;2023-04-24T12:21:20;7.11;;;5.17;;
66669;SDS011;53568;52.164;4.472;2023-04-24T12:23:48;8.23;;;5.98;;
66669;SDS011;53568;52.164;4.472;2023-04-24T12:26:17;8.09;;;5.89;;
66669;SDS011;53568;52.164;4.472;2023-04-24T12:28:46;8.25;;;5.92;;
66669;SDS011;53568;52.164;4.472;2023-04-24T12:31:14;8.04;;;5.92;;
66669;SDS011;53568;52.164;4.472;2023-04-24T12:33:42;7.02;;;5.29;;
66669;SDS011;53568;52.164;4.472;2023-04-24T12:36:11;6.94;;;5.23;;
66669;SDS011;53568;52.164;4.472;2023-04-24T12:38:37;7.63;;;5.79;;
66669;SDS011;53568;52.164;4.472;2023-04-24T12:41:10;7.27;;;5.45;;
66669;SDS011;53568;52.164;4.472;2023-04-24T12:43:38;6.95;;;5.21;;
66669;SDS011;53568;52.164;4.472;2023-04-24T12:46:04;7.53;;;5.48;;
66669;SDS011;53568;52.164;4.472;2023-04-24T12:48:30;7.31;;;5.54;;
66669;SDS011;53568;52.164;4.472;2023-04-24T12:50:59;7.40;;;5.55;;
66669;SDS011;53568;52.164;4.472;2023-04-24T12:53:28;7.72;;;5.92;;
66669;SDS011;53568;52.164;4.472;2023-04-24T12:55:57;7.38;;;5.72;;
66669;SDS011;53568;52.164;4.472;2023-04-24T12:58:24;7.29;;;5.55;;
66669;SDS011;53568;52.164;4.472;2023-04-24T13:00:49;7.04;;;5.40;;
66669;SDS011;53568;52.164;4.472;2023-04-24T13:03:15;6.56;;;5.18;;
66669;SDS011;53568;52.164;4.472;2023-04-24T13:05:42;6.58;;;5.25;;
66669;SDS011;53568;52.164;4.472;2023-04-24T13:08:08;7.36;;;5.71;;
66669;SDS011;53568;52.164;4.472;2023-04-24T13:10:34;6.75;;;5.32;;
66669;SDS011;53568;52.164;4.472;2023-04-24T13:12:59;6.87;;;5.36;;
66669;SDS011;53568;52.164;4.472;2023-04-24T13:15:25;6.95;;;5.57;;
66669;SDS011;53568;52.164;4.472;2023-04-24T13:17:51;7.52;;;5.98;;
66669;SDS011;53568;52.164;4.472;2023-04-24T13:20:17;6.36;;;5.14;;
66669;SDS011;53568;52.164;4.472;2023-04-24T13:22:43;6.80;;;5.55;;
66669;SDS011;53568;52.164;4.472;2023-04-24T13:25:09;6.68;;;5.49;;
66669;SDS011;53568;52.164;4.472;2023-04-24T13:27:35;6.71;;;5.58;;
66669;SDS011;53568;52.164;4.472;2023-04-24T13:30:01;6.84;;;5.81;;
66669;SDS011;53568;52.164;4.472;2023-04-24T13:32:26;7.00;;;5.93;;
66669;SDS011;53568;52.164;4.472;2023-04-24T13:34:53;7.59;;;6.33;;
66669;SDS011;53568;52.164;4.472;2023-04-24T13:37:19;6.88;;;5.75;;
66669;SDS011;53568;52.164;4.472;2023-04-24T13:39:44;7.28;;;6.15;;
66669;SDS011;53568;52.164;4.472;2023-04-24T13:42:10;7.11;;;6.21;;
66669;SDS011;53568;52.164;4.472;2023-04-24T13:44:36;7.49;;;6.47;;
66669;SDS011;53568;52.164;4.472;2023-04-24T13:47:01;7.08;;;6.10;;
66669;SDS011;53568;52.164;4.472;2023-04-24T13:49:27;7.05;;;5.88;;
66669;SDS011;53568;52.164;4.472;2023-04-24T13:51:54;6.97;;;5.90;;
66669;SDS011;53568;52.164;4.472;2023-04-24T13:54:21;7.00;;;5.94;;
66669;SDS011;53568;52.164;4.472;2023-04-24T13:56:48;6.77;;;5.80;;
66669;SDS011;53568;52.164;4.472;2023-04-24T13:59:14;6.81;;;5.91;;
66669;SDS011;53568;52.164;4.472;2023-04-24T14:01:39;6.20;;;5.49;;
66669;SDS011;53568;52.164;4.472;2023-04-24T14:04:05;6.46;;;5.53;;
66669;SDS011;53568;52.164;4.472;2023-04-24T14:06:33;6.87;;;5.85;;
66669;SDS011;53568;52.164;4.472;2023-04-24T14:09:05;6.72;;;5.64;;
66669;SDS011;53568;52.164;4.472;2023-04-24T14:11:32;6.73;;;5.65;;
66669;SDS011;53568;52.164;4.472;2023-04-24T14:13:58;6.84;;;5.67;;
66669;SDS011;53568;52.164;4.472;2023-04-24T14:16:24;7.52;;;6.15;;
66669;SDS011;53568;52.164;4.472;2023-04-24T14:18:50;8.54;;;6.87;;
66669;SDS011;53568;52.164;4.472;2023-04-24T14:21:16;7.78;;;6.38;;
66669;SDS011;53568;52.164;4.472;2023-04-24T14:23:44;7.46;;;6.15;;
66669;SDS011;53568;52.164;4.472;2023-04-24T14:26:09;8.51;;;6.96;;
66669;SDS011;53568;52.164;4.472;2023-04-24T14:28:35;9.14;;;7.23;;
66669;SDS011;53568;52.164;4.472;2023-04-24T14:31:00;8.56;;;6.88;;
66669;SDS011;53568;52.164;4.472;2023-04-24T14:33:26;9.55;;;7.63;;
66669;SDS011;53568;52.164;4.472;2023-04-24T14:35:51;9.08;;;7.40;;
66669;SDS011;53568;52.164;4.472;2023-04-24T14:38:17;8.27;;;6.99;;
66669;SDS011;53568;52.164;4.472;2023-04-24T14:40:42;7.46;;;6.41;;
66669;SDS011;53568;52.164;4.472;2023-04-24T14:43:08;6.54;;;5.73;;
66669;SDS011;53568;52.164;4.472;2023-04-24T14:45:33;6.39;;;5.73;;
66669;SDS011;53568;52.164;4.472;2023-04-24T14:47:59;6.51;;;5.75;;
66669;SDS011;53568;52.164;4.472;2023-04-24T14:50:25;7.22;;;6.24;;
66669;SDS011;53568;52.164;4.472;2023-04-24T14:52:53;7.05;;;6.09;;
66669;SDS011;53568;52.164;4.472;2023-04-24T14:55:22;6.91;;;6.11;;